sensor_id;sensor_type;location;lat;lon;timestamp;P1;durP1;ratioP1;P2;durP2;ratioP2
32760;SDS011;19126;47.472;7.850;2022-12-07T00:01:59;33.75;;;20.80;;
32760;SDS011;19126;47.472;7.850;2022-12-07T00:04:28;34.13;;;19.10;;
32760;SDS011;19126;47.472;7.850;2022-12-07T00:06:55;32.75;;;20.10;;
32760;SDS011;19126;47.472;7.850;2022-12-07T00:09:22;36.17;;;19.63;;
32760;SDS011;19126;47.472;7.850;2022-12-07T00:11:50;34.63;;;20.33;;
32760;SDS011;19126;47.472;7.850;2022-12-07T00:14:17;35.42;;;20.65;;
32760;SDS011;19126;47.472;7.850;2022-12-07T00:16:45;35.95;;;20.75;;
32760;SDS011;19126;47.472;7.850;2022-12-07T00:19:16;30.98;;;19.55;;
32760;SDS011;19126;47.472;7.850;2022-12-07T00:21:46;33.97;;;20.08;;
32760;SDS011;19126;47.472;7.850;2022-12-07T00:24:13;33.75;;;20.10;;
32760;SDS011;19126;47.472;7.850;2022-12-07T00:26:40;37.17;;;21.70;;
32760;SDS011;19126;47.472;7.850;2022-12-07T00:29:12;33.88;;;20.50;;
32760;SDS011;19126;47.472;7.850;2022-12-07T00:31:42;37.58;;;21.60;;
32760;SDS011;19126;47.472;7.850;2022-12-07T00:34:11;37.72;;;22.65;;
32760;SDS011;19126;47.472;7.850;2022-12-07T00:36:41;36.87;;;22.30;;
32760;SDS011;19126;47.472;7.850;2022-12-07T00:39:09;34.80;;;22.73;;
32760;SDS011;19126;47.472;7.850;2022-12-07T00:41:37;38.00;;;23.02;;
32760;SDS011;19126;47.472;7.850;2022-12-07T00:44:04;35.80;;;21.52;;
32760;SDS011;19126;47.472;7.850;2022-12-07T00:46:32;35.45;;;21.70;;
32760;SDS011;19126;47.472;7.850;2022-12-07T00:48:59;36.75;;;21.05;;
32760;SDS011;19126;47.472;7.850;2022-12-07T00:51:27;37.95;;;22.80;;
32760;SDS011;19126;47.472;7.850;2022-12-07T00:53:54;35.65;;;22.25;;
32760;SDS011;19126;47.472;7.850;2022-12-07T00:56:23;38.72;;;23.30;;
32760;SDS011;19126;47.472;7.850;2022-12-07T00:58:54;35.22;;;20.92;;
32760;SDS011;19126;47.472;7.850;2022-12-07T01:01:23;36.60;;;22.58;;
32760;SDS011;19126;47.472;7.850;2022-12-07T01:03:53;39.85;;;22.48;;
32760;SDS011;19126;47.472;7.850;2022-12-07T01:06:22;43.72;;;23.02;;
32760;SDS011;19126;47.472;7.850;2022-12-07T01:08:51;37.60;;;22.38;;
32760;SDS011;19126;47.472;7.850;2022-12-07T01:11:19;41.25;;;23.50;;
32760;SDS011;19126;47.472;7.850;2022-12-07T01:13:51;40.58;;;23.17;;
32760;SDS011;19126;47.472;7.850;2022-12-07T01:16:20;37.40;;;23.17;;
32760;SDS011;19126;47.472;7.850;2022-12-07T01:18:52;43.33;;;24.98;;
32760;SDS011;19126;47.472;7.850;2022-12-07T01:21:22;36.45;;;22.35;;
32760;SDS011;19126;47.472;7.850;2022-12-07T01:23:51;41.20;;;22.75;;
32760;SDS011;19126;47.472;7.850;2022-12-07T01:26:20;40.50;;;23.98;;
32760;SDS011;19126;47.472;7.850;2022-12-07T01:28:51;42.45;;;23.52;;
32760;SDS011;19126;47.472;7.850;2022-12-07T01:31:20;40.70;;;22.80;;
32760;SDS011;19126;47.472;7.850;2022-12-07T01:33:51;43.22;;;23.77;;
32760;SDS011;19126;47.472;7.850;2022-12-07T01:36:20;40.20;;;23.60;;
32760;SDS011;19126;47.472;7.850;2022-12-07T01:38:51;41.60;;;22.50;;
32760;SDS011;19126;47.472;7.850;2022-12-07T01:41:21;40.90;;;22.75;;
32760;SDS011;19126;47.472;7.850;2022-12-07T01:44:09;41.03;;;23.20;;
32760;SDS011;19126;47.472;7.850;2022-12-07T01:46:44;44.13;;;23.95;;
32760;SDS011;19126;47.472;7.850;2022-12-07T01:49:14;41.25;;;23.70;;
32760;SDS011;19126;47.472;7.850;2022-12-07T01:51:52;46.78;;;23.52;;
32760;SDS011;19126;47.472;7.850;2022-12-07T01:54:27;45.05;;;25.38;;
32760;SDS011;19126;47.472;7.850;2022-12-07T01:56:56;42.72;;;23.30;;
32760;SDS011;19126;47.472;7.850;2022-12-07T01:59:24;42.38;;;24.50;;
32760;SDS011;19126;47.472;7.850;2022-12-07T02:01:52;42.00;;;24.35;;
32760;SDS011;19126;47.472;7.850;2022-12-07T02:04:22;38.63;;;22.63;;
32760;SDS011;19126;47.472;7.850;2022-12-07T02:06:50;47.50;;;24.90;;
32760;SDS011;19126;47.472;7.850;2022-12-07T02:09:17;46.53;;;26.08;;
32760;SDS011;19126;47.472;7.850;2022-12-07T02:11:45;49.00;;;24.90;;
32760;SDS011;19126;47.472;7.850;2022-12-07T02:14:14;54.72;;;28.65;;
32760;SDS011;19126;47.472;7.850;2022-12-07T02:16:44;45.20;;;26.75;;
32760;SDS011;19126;47.472;7.850;2022-12-07T02:19:35;49.70;;;25.80;;
32760;SDS011;19126;47.472;7.850;2022-12-07T02:22:46;50.22;;;27.05;;
32760;SDS011;19126;47.472;7.850;2022-12-07T02:25:46;48.25;;;25.70;;
32760;SDS011;19126;47.472;7.850;2022-12-07T02:28:33;50.70;;;26.05;;
32760;SDS011;19126;47.472;7.850;2022-12-07T02:31:05;46.15;;;26.00;;
32760;SDS011;19126;47.472;7.850;2022-12-07T02:33:40;46.15;;;24.48;;
32760;SDS011;19126;47.472;7.850;2022-12-07T02:36:12;48.67;;;25.95;;
32760;SDS011;19126;47.472;7.850;2022-12-07T02:38:47;49.97;;;26.02;;
32760;SDS011;19126;47.472;7.850;2022-12-07T02:41:22;48.20;;;26.25;;
32760;SDS011;19126;47.472;7.850;2022-12-07T02:43:56;55.00;;;27.85;;
32760;SDS011;19126;47.472;7.850;2022-12-07T02:46:29;46.78;;;25.77;;
32760;SDS011;19126;47.472;7.850;2022-12-07T02:49:00;45.65;;;25.17;;
32760;SDS011;19126;47.472;7.850;2022-12-07T02:51:29;49.28;;;25.80;;
32760;SDS011;19126;47.472;7.850;2022-12-07T02:53:58;41.22;;;23.27;;
32760;SDS011;19126;47.472;7.850;2022-12-07T02:56:27;40.63;;;22.98;;
32760;SDS011;19126;47.472;7.850;2022-12-07T02:59:09;40.15;;;22.80;;
32760;SDS011;19126;47.472;7.850;2022-12-07T03:01:54;40.05;;;21.52;;
32760;SDS011;19126;47.472;7.850;2022-12-07T03:04:33;35.00;;;20.42;;
32760;SDS011;19126;47.472;7.850;2022-12-07T03:07:13;35.35;;;20.58;;
32760;SDS011;19126;47.472;7.850;2022-12-07T03:09:53;38.88;;;21.05;;
32760;SDS011;19126;47.472;7.850;2022-12-07T03:12:29;35.72;;;19.92;;
32760;SDS011;19126;47.472;7.850;2022-12-07T03:15:03;33.28;;;18.77;;
32760;SDS011;19126;47.472;7.850;2022-12-07T03:17:40;35.15;;;18.52;;
32760;SDS011;19126;47.472;7.850;2022-12-07T03:20:12;28.95;;;18.02;;
32760;SDS011;19126;47.472;7.850;2022-12-07T03:22:43;31.73;;;18.90;;
32760;SDS011;19126;47.472;7.850;2022-12-07T03:25:13;31.60;;;16.73;;
32760;SDS011;19126;47.472;7.850;2022-12-07T03:27:45;30.40;;;16.67;;
32760;SDS011;19126;47.472;7.850;2022-12-07T03:30:22;25.80;;;16.00;;
32760;SDS011;19126;47.472;7.850;2022-12-07T03:32:56;25.38;;;15.45;;
32760;SDS011;19126;47.472;7.850;2022-12-07T03:35:29;26.58;;;16.73;;
32760;SDS011;19126;47.472;7.850;2022-12-07T03:38:04;24.23;;;15.38;;
32760;SDS011;19126;47.472;7.850;2022-12-07T03:40:44;26.15;;;16.08;;
32760;SDS011;19126;47.472;7.850;2022-12-07T03:43:17;28.73;;;17.08;;
32760;SDS011;19126;47.472;7.850;2022-12-07T03:45:47;27.88;;;17.38;;
32760;SDS011;19126;47.472;7.850;2022-12-07T03:48:31;28.73;;;17.25;;
32760;SDS011;19126;47.472;7.850;2022-12-07T03:51:06;29.80;;;17.48;;
32760;SDS011;19126;47.472;7.850;2022-12-07T03:53:42;31.80;;;18.55;;
32760;SDS011;19126;47.472;7.850;2022-12-07T03:56:15;34.03;;;18.17;;
32760;SDS011;19126;47.472;7.850;2022-12-07T03:58:43;28.08;;;17.13;;
32760;SDS011;19126;47.472;7.850;2022-12-07T04:01:11;31.30;;;18.05;;
32760;SDS011;19126;47.472;7.850;2022-12-07T04:03:39;33.92;;;18.20;;
32760;SDS011;19126;47.472;7.850;2022-12-07T04:06:07;32.65;;;18.13;;
32760;SDS011;19126;47.472;7.850;2022-12-07T04:08:34;30.90;;;18.65;;
32760;SDS011;19126;47.472;7.850;2022-12-07T04:11:01;33.78;;;19.48;;
32760;SDS011;19126;47.472;7.850;2022-12-07T04:13:29;36.10;;;20.77;;
32760;SDS011;19126;47.472;7.850;2022-12-07T04:16:16;32.00;;;19.30;;
32760;SDS011;19126;47.472;7.850;2022-12-07T04:18:45;33.42;;;19.17;;
32760;SDS011;19126;47.472;7.850;2022-12-07T04:21:12;35.63;;;21.08;;
32760;SDS011;19126;47.472;7.850;2022-12-07T04:23:39;35.25;;;21.25;;
32760;SDS011;19126;47.472;7.850;2022-12-07T04:26:07;38.95;;;20.77;;
32760;SDS011;19126;47.472;7.850;2022-12-07T04:28:34;39.80;;;22.77;;
32760;SDS011;19126;47.472;7.850;2022-12-07T04:31:01;39.78;;;21.42;;
32760;SDS011;19126;47.472;7.850;2022-12-07T04:33:29;37.80;;;22.33;;
32760;SDS011;19126;47.472;7.850;2022-12-07T04:35:57;41.17;;;23.35;;
32760;SDS011;19126;47.472;7.850;2022-12-07T04:38:25;42.65;;;23.73;;
32760;SDS011;19126;47.472;7.850;2022-12-07T04:40:52;44.17;;;24.60;;
32760;SDS011;19126;47.472;7.850;2022-12-07T04:43:19;44.70;;;24.10;;
32760;SDS011;19126;47.472;7.850;2022-12-07T04:45:46;45.65;;;25.08;;
32760;SDS011;19126;47.472;7.850;2022-12-07T04:48:15;42.97;;;24.20;;
32760;SDS011;19126;47.472;7.850;2022-12-07T04:50:42;44.42;;;25.23;;
32760;SDS011;19126;47.472;7.850;2022-12-07T04:53:11;51.03;;;24.90;;
32760;SDS011;19126;47.472;7.850;2022-12-07T04:55:38;51.70;;;25.75;;
32760;SDS011;19126;47.472;7.850;2022-12-07T04:58:06;43.65;;;25.13;;
32760;SDS011;19126;47.472;7.850;2022-12-07T05:00:33;50.08;;;26.30;;
32760;SDS011;19126;47.472;7.850;2022-12-07T05:03:01;49.78;;;27.80;;
32760;SDS011;19126;47.472;7.850;2022-12-07T05:05:28;48.97;;;25.90;;
32760;SDS011;19126;47.472;7.850;2022-12-07T05:07:55;55.30;;;26.67;;
32760;SDS011;19126;47.472;7.850;2022-12-07T05:10:24;53.50;;;29.13;;
32760;SDS011;19126;47.472;7.850;2022-12-07T05:12:51;44.50;;;26.13;;
32760;SDS011;19126;47.472;7.850;2022-12-07T05:15:18;49.53;;;27.10;;
32760;SDS011;19126;47.472;7.850;2022-12-07T05:17:46;54.78;;;28.08;;
32760;SDS011;19126;47.472;7.850;2022-12-07T05:20:13;50.58;;;28.05;;
32760;SDS011;19126;47.472;7.850;2022-12-07T05:22:40;48.97;;;27.90;;
32760;SDS011;19126;47.472;7.850;2022-12-07T05:25:08;57.55;;;28.15;;
32760;SDS011;19126;47.472;7.850;2022-12-07T05:27:37;59.00;;;28.95;;
32760;SDS011;19126;47.472;7.850;2022-12-07T05:30:05;52.10;;;28.38;;
32760;SDS011;19126;47.472;7.850;2022-12-07T05:32:33;56.45;;;26.52;;
32760;SDS011;19126;47.472;7.850;2022-12-07T05:35:00;49.83;;;26.48;;
32760;SDS011;19126;47.472;7.850;2022-12-07T05:37:28;48.55;;;27.17;;
32760;SDS011;19126;47.472;7.850;2022-12-07T05:39:55;53.58;;;26.35;;
32760;SDS011;19126;47.472;7.850;2022-12-07T05:42:22;54.67;;;28.88;;
32760;SDS011;19126;47.472;7.850;2022-12-07T05:44:51;51.33;;;28.20;;
32760;SDS011;19126;47.472;7.850;2022-12-07T05:47:19;58.00;;;30.00;;
32760;SDS011;19126;47.472;7.850;2022-12-07T05:49:46;59.88;;;31.15;;
32760;SDS011;19126;47.472;7.850;2022-12-07T05:52:13;58.45;;;29.58;;
32760;SDS011;19126;47.472;7.850;2022-12-07T05:54:42;58.15;;;28.35;;
32760;SDS011;19126;47.472;7.850;2022-12-07T05:57:09;54.60;;;28.17;;
32760;SDS011;19126;47.472;7.850;2022-12-07T05:59:37;50.63;;;28.13;;
32760;SDS011;19126;47.472;7.850;2022-12-07T06:02:05;58.17;;;30.58;;
32760;SDS011;19126;47.472;7.850;2022-12-07T06:04:35;54.20;;;28.90;;
32760;SDS011;19126;47.472;7.850;2022-12-07T06:07:04;55.20;;;28.80;;
32760;SDS011;19126;47.472;7.850;2022-12-07T06:09:32;51.85;;;26.42;;
32760;SDS011;19126;47.472;7.850;2022-12-07T06:12:00;57.13;;;28.90;;
32760;SDS011;19126;47.472;7.850;2022-12-07T06:14:45;60.35;;;29.27;;
32760;SDS011;19126;47.472;7.850;2022-12-07T06:17:16;56.95;;;30.40;;
32760;SDS011;19126;47.472;7.850;2022-12-07T06:19:43;57.03;;;29.05;;
32760;SDS011;19126;47.472;7.850;2022-12-07T06:22:10;57.22;;;29.48;;
32760;SDS011;19126;47.472;7.850;2022-12-07T06:24:38;62.88;;;29.70;;
32760;SDS011;19126;47.472;7.850;2022-12-07T06:27:06;61.15;;;27.23;;
32760;SDS011;19126;47.472;7.850;2022-12-07T06:29:33;55.55;;;27.88;;
32760;SDS011;19126;47.472;7.850;2022-12-07T06:32:01;57.55;;;27.00;;
32760;SDS011;19126;47.472;7.850;2022-12-07T06:34:30;56.22;;;29.08;;
32760;SDS011;19126;47.472;7.850;2022-12-07T06:36:58;55.95;;;27.08;;
32760;SDS011;19126;47.472;7.850;2022-12-07T06:39:26;53.92;;;26.85;;
32760;SDS011;19126;47.472;7.850;2022-12-07T06:41:56;52.53;;;26.48;;
32760;SDS011;19126;47.472;7.850;2022-12-07T06:44:24;54.85;;;27.85;;
32760;SDS011;19126;47.472;7.850;2022-12-07T06:46:52;53.30;;;27.30;;
32760;SDS011;19126;47.472;7.850;2022-12-07T06:49:20;55.55;;;26.45;;
32760;SDS011;19126;47.472;7.850;2022-12-07T06:51:49;55.25;;;26.55;;
32760;SDS011;19126;47.472;7.850;2022-12-07T06:54:17;49.08;;;26.15;;
32760;SDS011;19126;47.472;7.850;2022-12-07T06:56:50;52.95;;;25.05;;
32760;SDS011;19126;47.472;7.850;2022-12-07T06:59:18;51.20;;;27.50;;
32760;SDS011;19126;47.472;7.850;2022-12-07T07:01:46;68.05;;;31.40;;
32760;SDS011;19126;47.472;7.850;2022-12-07T07:04:13;53.65;;;26.70;;
32760;SDS011;19126;47.472;7.850;2022-12-07T07:06:41;55.33;;;27.33;;
32760;SDS011;19126;47.472;7.850;2022-12-07T07:09:10;56.47;;;26.63;;
32760;SDS011;19126;47.472;7.850;2022-12-07T07:11:37;51.13;;;25.15;;
32760;SDS011;19126;47.472;7.850;2022-12-07T07:14:05;50.28;;;27.05;;
32760;SDS011;19126;47.472;7.850;2022-12-07T07:16:33;48.42;;;25.90;;
32760;SDS011;19126;47.472;7.850;2022-12-07T07:19:02;48.03;;;24.52;;
32760;SDS011;19126;47.472;7.850;2022-12-07T07:21:29;48.38;;;24.33;;
32760;SDS011;19126;47.472;7.850;2022-12-07T07:23:58;49.35;;;23.17;;
32760;SDS011;19126;47.472;7.850;2022-12-07T07:26:27;41.80;;;21.90;;
32760;SDS011;19126;47.472;7.850;2022-12-07T07:28:55;40.75;;;23.25;;
32760;SDS011;19126;47.472;7.850;2022-12-07T07:31:22;39.00;;;21.27;;
32760;SDS011;19126;47.472;7.850;2022-12-07T07:33:50;41.58;;;21.23;;
32760;SDS011;19126;47.472;7.850;2022-12-07T07:36:17;42.45;;;21.75;;
32760;SDS011;19126;47.472;7.850;2022-12-07T07:38:45;40.00;;;21.15;;
32760;SDS011;19126;47.472;7.850;2022-12-07T07:41:12;35.67;;;19.58;;
32760;SDS011;19126;47.472;7.850;2022-12-07T07:43:41;37.38;;;20.15;;
32760;SDS011;19126;47.472;7.850;2022-12-07T07:46:08;34.33;;;19.38;;
32760;SDS011;19126;47.472;7.850;2022-12-07T07:48:36;33.58;;;19.38;;
32760;SDS011;19126;47.472;7.850;2022-12-07T07:51:04;32.30;;;18.30;;
32760;SDS011;19126;47.472;7.850;2022-12-07T07:53:33;35.85;;;19.42;;
32760;SDS011;19126;47.472;7.850;2022-12-07T07:56:03;37.65;;;20.25;;
32760;SDS011;19126;47.472;7.850;2022-12-07T07:58:31;37.65;;;20.33;;
32760;SDS011;19126;47.472;7.850;2022-12-07T08:01:04;34.92;;;19.38;;
32760;SDS011;19126;47.472;7.850;2022-12-07T08:03:33;29.73;;;17.65;;
32760;SDS011;19126;47.472;7.850;2022-12-07T08:06:01;33.95;;;19.60;;
32760;SDS011;19126;47.472;7.850;2022-12-07T08:08:29;32.67;;;19.08;;
32760;SDS011;19126;47.472;7.850;2022-12-07T08:10:56;34.03;;;19.42;;
32760;SDS011;19126;47.472;7.850;2022-12-07T08:13:26;39.75;;;20.90;;
32760;SDS011;19126;47.472;7.850;2022-12-07T08:15:54;35.50;;;20.38;;
32760;SDS011;19126;47.472;7.850;2022-12-07T08:18:22;44.08;;;21.38;;
32760;SDS011;19126;47.472;7.850;2022-12-07T08:20:58;32.33;;;19.85;;
32760;SDS011;19126;47.472;7.850;2022-12-07T08:23:26;42.55;;;21.00;;
32760;SDS011;19126;47.472;7.850;2022-12-07T08:25:54;42.72;;;22.73;;
32760;SDS011;19126;47.472;7.850;2022-12-07T08:28:21;43.13;;;23.08;;
32760;SDS011;19126;47.472;7.850;2022-12-07T08:30:48;41.80;;;22.13;;
32760;SDS011;19126;47.472;7.850;2022-12-07T08:33:16;37.80;;;21.73;;
32760;SDS011;19126;47.472;7.850;2022-12-07T08:35:44;37.30;;;22.08;;
32760;SDS011;19126;47.472;7.850;2022-12-07T08:38:12;44.25;;;22.33;;
32760;SDS011;19126;47.472;7.850;2022-12-07T08:40:40;40.05;;;22.67;;
32760;SDS011;19126;47.472;7.850;2022-12-07T08:43:08;44.00;;;22.70;;
32760;SDS011;19126;47.472;7.850;2022-12-07T08:45:36;40.97;;;22.02;;
32760;SDS011;19126;47.472;7.850;2022-12-07T08:48:08;39.50;;;21.40;;
32760;SDS011;19126;47.472;7.850;2022-12-07T08:50:48;40.53;;;22.60;;
32760;SDS011;19126;47.472;7.850;2022-12-07T08:53:16;37.80;;;20.17;;
32760;SDS011;19126;47.472;7.850;2022-12-07T08:55:44;36.85;;;19.92;;
32760;SDS011;19126;47.472;7.850;2022-12-07T08:58:12;36.75;;;19.42;;
32760;SDS011;19126;47.472;7.850;2022-12-07T09:00:40;32.42;;;18.48;;
32760;SDS011;19126;47.472;7.850;2022-12-07T09:03:07;35.38;;;20.35;;
32760;SDS011;19126;47.472;7.850;2022-12-07T09:05:36;36.80;;;20.27;;
32760;SDS011;19126;47.472;7.850;2022-12-07T09:08:09;38.38;;;20.55;;
32760;SDS011;19126;47.472;7.850;2022-12-07T09:10:36;36.40;;;21.08;;
32760;SDS011;19126;47.472;7.850;2022-12-07T09:13:03;39.38;;;20.65;;
32760;SDS011;19126;47.472;7.850;2022-12-07T09:15:31;113.07;;;49.17;;
32760;SDS011;19126;47.472;7.850;2022-12-07T09:17:58;42.13;;;22.13;;
32760;SDS011;19126;47.472;7.850;2022-12-07T09:20:25;61.40;;;30.63;;
32760;SDS011;19126;47.472;7.850;2022-12-07T09:22:53;39.33;;;23.13;;
32760;SDS011;19126;47.472;7.850;2022-12-07T09:25:22;45.20;;;22.08;;
32760;SDS011;19126;47.472;7.850;2022-12-07T09:27:54;38.60;;;20.40;;
32760;SDS011;19126;47.472;7.850;2022-12-07T09:30:23;31.50;;;18.33;;
32760;SDS011;19126;47.472;7.850;2022-12-07T09:32:52;36.55;;;19.73;;
32760;SDS011;19126;47.472;7.850;2022-12-07T09:35:20;41.97;;;21.50;;
32760;SDS011;19126;47.472;7.850;2022-12-07T09:37:48;36.22;;;21.60;;
32760;SDS011;19126;47.472;7.850;2022-12-07T09:40:15;37.63;;;22.42;;
32760;SDS011;19126;47.472;7.850;2022-12-07T09:42:49;40.05;;;21.85;;
32760;SDS011;19126;47.472;7.850;2022-12-07T09:45:21;37.47;;;21.67;;
32760;SDS011;19126;47.472;7.850;2022-12-07T09:47:50;46.28;;;22.92;;
32760;SDS011;19126;47.472;7.850;2022-12-07T09:50:19;38.13;;;22.15;;
32760;SDS011;19126;47.472;7.850;2022-12-07T09:52:51;38.17;;;21.35;;
32760;SDS011;19126;47.472;7.850;2022-12-07T09:55:22;35.92;;;20.42;;
32760;SDS011;19126;47.472;7.850;2022-12-07T09:57:54;32.78;;;20.02;;
32760;SDS011;19126;47.472;7.850;2022-12-07T10:00:23;35.55;;;21.25;;
32760;SDS011;19126;47.472;7.850;2022-12-07T10:02:55;33.78;;;19.60;;
32760;SDS011;19126;47.472;7.850;2022-12-07T10:05:27;32.53;;;18.02;;
32760;SDS011;19126;47.472;7.850;2022-12-07T10:07:58;37.47;;;19.55;;
32760;SDS011;19126;47.472;7.850;2022-12-07T10:10:26;36.38;;;18.88;;
32760;SDS011;19126;47.472;7.850;2022-12-07T10:13:01;35.38;;;20.27;;
32760;SDS011;19126;47.472;7.850;2022-12-07T10:15:40;31.27;;;18.20;;
32760;SDS011;19126;47.472;7.850;2022-12-07T10:21:04;30.88;;;18.83;;
32760;SDS011;19126;47.472;7.850;2022-12-07T10:23:38;29.77;;;19.25;;
32760;SDS011;19126;47.472;7.850;2022-12-07T10:26:19;34.35;;;18.27;;
32760;SDS011;19126;47.472;7.850;2022-12-07T10:28:57;31.55;;;17.83;;
32760;SDS011;19126;47.472;7.850;2022-12-07T10:31:28;33.42;;;19.17;;
32760;SDS011;19126;47.472;7.850;2022-12-07T10:33:56;32.80;;;19.33;;
32760;SDS011;19126;47.472;7.850;2022-12-07T10:36:29;32.40;;;18.52;;
32760;SDS011;19126;47.472;7.850;2022-12-07T10:39:03;28.52;;;17.23;;
32760;SDS011;19126;47.472;7.850;2022-12-07T10:41:52;29.65;;;18.73;;
32760;SDS011;19126;47.472;7.850;2022-12-07T10:44:24;35.28;;;18.35;;
32760;SDS011;19126;47.472;7.850;2022-12-07T10:47:09;35.25;;;19.95;;
32760;SDS011;19126;47.472;7.850;2022-12-07T10:50:11;31.15;;;19.65;;
32760;SDS011;19126;47.472;7.850;2022-12-07T10:56:06;28.80;;;17.67;;
32760;SDS011;19126;47.472;7.850;2022-12-07T10:58:59;37.05;;;19.35;;
32760;SDS011;19126;47.472;7.850;2022-12-07T11:01:48;33.72;;;19.30;;
32760;SDS011;19126;47.472;7.850;2022-12-07T11:04:24;31.08;;;19.20;;
32760;SDS011;19126;47.472;7.850;2022-12-07T11:07:04;33.67;;;18.92;;
32760;SDS011;19126;47.472;7.850;2022-12-07T11:12:31;32.88;;;17.92;;
32760;SDS011;19126;47.472;7.850;2022-12-07T11:15:16;29.27;;;17.13;;
32760;SDS011;19126;47.472;7.850;2022-12-07T11:17:52;23.00;;;15.20;;
32760;SDS011;19126;47.472;7.850;2022-12-07T11:20:39;29.25;;;15.93;;
32760;SDS011;19126;47.472;7.850;2022-12-07T11:23:18;41.85;;;17.88;;
32760;SDS011;19126;47.472;7.850;2022-12-07T11:26:01;30.30;;;17.88;;
32760;SDS011;19126;47.472;7.850;2022-12-07T11:28:42;35.97;;;18.10;;
32760;SDS011;19126;47.472;7.850;2022-12-07T11:31:28;28.13;;;16.73;;
32760;SDS011;19126;47.472;7.850;2022-12-07T11:34:13;26.88;;;16.23;;
32760;SDS011;19126;47.472;7.850;2022-12-07T11:36:49;29.95;;;16.75;;
32760;SDS011;19126;47.472;7.850;2022-12-07T11:39:22;26.88;;;16.30;;
32760;SDS011;19126;47.472;7.850;2022-12-07T11:41:57;29.90;;;18.20;;
32760;SDS011;19126;47.472;7.850;2022-12-07T11:44:31;34.30;;;18.73;;
32760;SDS011;19126;47.472;7.850;2022-12-07T11:47:06;28.38;;;16.80;;
32760;SDS011;19126;47.472;7.850;2022-12-07T11:49:43;28.60;;;16.52;;
32760;SDS011;19126;47.472;7.850;2022-12-07T11:52:20;31.85;;;17.02;;
32760;SDS011;19126;47.472;7.850;2022-12-07T11:54:58;27.60;;;17.37;;
32760;SDS011;19126;47.472;7.850;2022-12-07T11:57:31;30.60;;;17.77;;
32760;SDS011;19126;47.472;7.850;2022-12-07T12:00:08;26.75;;;15.80;;
32760;SDS011;19126;47.472;7.850;2022-12-07T12:02:43;26.90;;;16.92;;
32760;SDS011;19126;47.472;7.850;2022-12-07T12:05:20;26.08;;;16.38;;
32760;SDS011;19126;47.472;7.850;2022-12-07T12:07:51;27.08;;;16.08;;
32760;SDS011;19126;47.472;7.850;2022-12-07T12:10:27;30.42;;;16.95;;
32760;SDS011;19126;47.472;7.850;2022-12-07T12:13:25;29.63;;;15.98;;
32760;SDS011;19126;47.472;7.850;2022-12-07T12:19:28;28.27;;;15.68;;
32760;SDS011;19126;47.472;7.850;2022-12-07T12:22:04;28.52;;;16.88;;
32760;SDS011;19126;47.472;7.850;2022-12-07T12:24:40;28.98;;;17.27;;
32760;SDS011;19126;47.472;7.850;2022-12-07T12:27:14;30.63;;;16.10;;
32760;SDS011;19126;47.472;7.850;2022-12-07T12:29:52;28.55;;;17.60;;
32760;SDS011;19126;47.472;7.850;2022-12-07T12:32:22;26.08;;;15.73;;
32760;SDS011;19126;47.472;7.850;2022-12-07T12:34:59;26.20;;;16.70;;
32760;SDS011;19126;47.472;7.850;2022-12-07T12:37:47;26.83;;;16.95;;
32760;SDS011;19126;47.472;7.850;2022-12-07T12:40:40;26.38;;;15.45;;
32760;SDS011;19126;47.472;7.850;2022-12-07T12:46:36;23.00;;;14.13;;
32760;SDS011;19126;47.472;7.850;2022-12-07T12:49:32;23.27;;;13.80;;
32760;SDS011;19126;47.472;7.850;2022-12-07T12:55:29;23.98;;;14.27;;
32760;SDS011;19126;47.472;7.850;2022-12-07T12:58:38;21.58;;;14.15;;
32760;SDS011;19126;47.472;7.850;2022-12-07T13:04:16;22.60;;;13.55;;
32760;SDS011;19126;47.472;7.850;2022-12-07T13:07:01;26.42;;;14.75;;
32760;SDS011;19126;47.472;7.850;2022-12-07T13:09:32;23.55;;;13.82;;
32760;SDS011;19126;47.472;7.850;2022-12-07T13:12:12;23.52;;;14.68;;
32760;SDS011;19126;47.472;7.850;2022-12-07T13:14:52;24.00;;;15.18;;
32760;SDS011;19126;47.472;7.850;2022-12-07T13:20:42;26.17;;;14.88;;
32760;SDS011;19126;47.472;7.850;2022-12-07T13:23:24;23.52;;;14.70;;
32760;SDS011;19126;47.472;7.850;2022-12-07T13:26:12;28.92;;;15.93;;
32760;SDS011;19126;47.472;7.850;2022-12-07T13:28:43;22.13;;;14.68;;
32760;SDS011;19126;47.472;7.850;2022-12-07T13:31:14;33.83;;;15.82;;
32760;SDS011;19126;47.472;7.850;2022-12-07T13:33:54;25.65;;;14.90;;
32760;SDS011;19126;47.472;7.850;2022-12-07T13:36:22;23.55;;;14.07;;
32760;SDS011;19126;47.472;7.850;2022-12-07T13:38:52;26.65;;;16.13;;
32760;SDS011;19126;47.472;7.850;2022-12-07T13:41:24;26.00;;;16.15;;
32760;SDS011;19126;47.472;7.850;2022-12-07T13:43:54;27.67;;;15.63;;
32760;SDS011;19126;47.472;7.850;2022-12-07T13:49:04;28.10;;;17.00;;
32760;SDS011;19126;47.472;7.850;2022-12-07T13:51:49;30.23;;;17.88;;
32760;SDS011;19126;47.472;7.850;2022-12-07T13:54:16;30.38;;;17.30;;
32760;SDS011;19126;47.472;7.850;2022-12-07T13:56:48;35.67;;;16.90;;
32760;SDS011;19126;47.472;7.850;2022-12-07T13:59:18;28.63;;;17.33;;
32760;SDS011;19126;47.472;7.850;2022-12-07T14:01:48;31.38;;;19.60;;
32760;SDS011;19126;47.472;7.850;2022-12-07T14:06:53;30.95;;;16.70;;
32760;SDS011;19126;47.472;7.850;2022-12-07T14:09:21;30.77;;;18.20;;
32760;SDS011;19126;47.472;7.850;2022-12-07T14:11:52;28.48;;;17.63;;
32760;SDS011;19126;47.472;7.850;2022-12-07T14:14:22;30.80;;;17.67;;
32760;SDS011;19126;47.472;7.850;2022-12-07T14:16:56;30.33;;;18.75;;
32760;SDS011;19126;47.472;7.850;2022-12-07T14:19:42;29.45;;;18.23;;
32760;SDS011;19126;47.472;7.850;2022-12-07T14:25:09;28.40;;;17.30;;
32760;SDS011;19126;47.472;7.850;2022-12-07T14:27:49;36.88;;;19.13;;
32760;SDS011;19126;47.472;7.850;2022-12-07T14:30:23;37.95;;;19.08;;
32760;SDS011;19126;47.472;7.850;2022-12-07T14:32:53;31.50;;;19.35;;
32760;SDS011;19126;47.472;7.850;2022-12-07T14:35:25;32.50;;;17.95;;
32760;SDS011;19126;47.472;7.850;2022-12-07T14:37:53;31.00;;;18.10;;
32760;SDS011;19126;47.472;7.850;2022-12-07T14:40:22;33.45;;;18.20;;
32760;SDS011;19126;47.472;7.850;2022-12-07T14:42:53;36.85;;;19.40;;
32760;SDS011;19126;47.472;7.850;2022-12-07T14:45:25;32.70;;;18.20;;
32760;SDS011;19126;47.472;7.850;2022-12-07T14:47:53;30.00;;;18.02;;
32760;SDS011;19126;47.472;7.850;2022-12-07T14:50:20;28.38;;;16.08;;
32760;SDS011;19126;47.472;7.850;2022-12-07T14:52:49;32.53;;;18.25;;
32760;SDS011;19126;47.472;7.850;2022-12-07T14:55:23;29.13;;;17.23;;
32760;SDS011;19126;47.472;7.850;2022-12-07T14:57:54;32.75;;;18.10;;
32760;SDS011;19126;47.472;7.850;2022-12-07T15:00:22;38.75;;;19.17;;
32760;SDS011;19126;47.472;7.850;2022-12-07T15:02:51;32.92;;;17.67;;
32760;SDS011;19126;47.472;7.850;2022-12-07T15:05:19;31.15;;;18.77;;
32760;SDS011;19126;47.472;7.850;2022-12-07T15:07:47;28.40;;;17.58;;
32760;SDS011;19126;47.472;7.850;2022-12-07T15:10:17;29.38;;;17.13;;
32760;SDS011;19126;47.472;7.850;2022-12-07T15:12:46;29.17;;;18.08;;
32760;SDS011;19126;47.472;7.850;2022-12-07T15:15:15;36.00;;;17.98;;
32760;SDS011;19126;47.472;7.850;2022-12-07T15:17:43;32.67;;;19.13;;
32760;SDS011;19126;47.472;7.850;2022-12-07T15:20:11;35.70;;;20.10;;
32760;SDS011;19126;47.472;7.850;2022-12-07T15:22:41;32.63;;;19.08;;